Time;durP1;ratioP1;P1;durP2;ratioP2;P2;SDS_P1;SDS_P2;PMS_P1;PMS_P2;Temp;Humidity;BMP_temperature;BMP_pressure;BME280_temperature;BME280_humidity;BME280_pressure;Samples;Min_cycle;Max_cycle;Signal;HPM_P1;HPM_P2
2023/06/19 00:00:45;;;;;;;6.03;5.57;;;;;;;;;;5036216;28;20054;-86
2023/06/19 00:03:11;;;;;;;5.30;5.00;;;;;;;;;;5036248;28;20123;-86
2023/06/19 00:05:37;;;;;;;4.85;4.63;;;;;;;;;;5003349;28;20045;-86
2023/06/19 00:08:05;;;;;;;5.35;4.95;;;;;;;;;;5036321;28;20379;-86
2023/06/19 00:10:31;;;;;;;4.72;4.45;;;;;;;;;;5035291;28;20045;-87
2023/06/19 00:12:57;;;;;;;5.07;4.78;;;;;;;;;;5036335;28;20478;-87
2023/06/19 00:15:23;;;;;;;5.07;4.88;;;;;;;;;;5019588;28;20053;-87
2023/06/19 00:17:49;;;;;;;4.93;4.63;;;;;;;;;;5037031;28;20100;-87
2023/06/19 00:20:15;;;;;;;4.95;4.70;;;;;;;;;;5035851;28;20053;-87
2023/06/19 00:22:41;;;;;;;5.20;4.90;;;;;;;;;;5036035;28;20140;-87
2023/06/19 00:25:08;;;;;;;5.50;5.20;;;;;;;;;;5036030;28;20049;-87
2023/06/19 00:27:34;;;;;;;5.15;4.82;;;;;;;;;;5036921;28;20088;-87
2023/06/19 00:30:01;;;;;;;5.20;4.88;;;;;;;;;;5018661;28;20485;-87
2023/06/19 00:32:27;;;;;;;5.05;4.80;;;;;;;;;;5035969;28;20049;-87
2023/06/19 00:34:53;;;;;;;5.72;5.20;;;;;;;;;;5035855;28;20052;-87
2023/06/19 00:37:20;;;;;;;5.07;4.78;;;;;;;;;;5035961;28;20433;-87
2023/06/19 00:39:46;;;;;;;5.20;4.90;;;;;;;;;;5035712;28;20504;-88
2023/06/19 00:42:12;;;;;;;5.05;4.75;;;;;;;;;;5035756;28;20401;-87
2023/06/19 00:44:38;;;;;;;4.95;4.75;;;;;;;;;;5035669;28;20071;-87
2023/06/19 00:47:04;;;;;;;5.28;4.80;;;;;;;;;;5019063;28;20482;-87
2023/06/19 00:49:31;;;;;;;5.45;5.10;;;;;;;;;;5035635;28;20128;-87
2023/06/19 00:51:57;;;;;;;5.40;5.05;;;;;;;;;;5035423;28;20061;-87
2023/06/19 00:54:24;;;;;;;4.82;4.53;;;;;;;;;;5019046;28;20162;-87
2023/06/19 00:56:50;;;;;;;5.50;5.07;;;;;;;;;;5035959;28;20052;-86
2023/06/19 00:59:20;;;;;;;4.70;4.40;;;;;;;;;;5034482;28;20041;-86
2023/06/19 01:01:46;;;;;;;5.35;4.95;;;;;;;;;;5035211;28;20383;-86
2023/06/19 01:04:13;;;;;;;4.97;4.68;;;;;;;;;;5035299;28;20045;-86
2023/06/19 01:06:58;;;;;;;5.78;5.38;;;;;;;;;;5018890;28;20049;-85
2023/06/19 01:09:26;;;;;;;5.47;4.97;;;;;;;;;;5034880;28;20128;-86
2023/06/19 01:11:59;;;;;;;5.80;5.38;;;;;;;;;;5018576;28;20433;-86
2023/06/19 01:14:31;;;;;;;5.53;5.20;;;;;;;;;;5035227;28;20045;-86
2023/06/19 01:16:57;;;;;;;5.80;5.40;;;;;;;;;;5018407;28;20155;-85
2023/06/19 01:19:25;;;;;;;5.88;4.90;;;;;;;;;;5018461;28;20489;-86
2023/06/19 01:21:51;;;;;;;6.13;5.53;;;;;;;;;;5034604;28;20056;-86
2023/06/19 01:24:17;;;;;;;5.07;4.88;;;;;;;;;;5035650;28;20049;-85
2023/06/19 01:26:47;;;;;;;5.50;5.10;;;;;;;;;;5035722;28;20057;-86
2023/06/19 01:29:14;;;;;;;5.10;4.90;;;;;;;;;;5034466;28;20459;-86
2023/06/19 01:31:47;;;;;;;5.45;5.00;;;;;;;;;;5035760;28;20402;-86
2023/06/19 01:34:16;;;;;;;5.35;4.93;;;;;;;;;;5034888;28;20132;-85
2023/06/19 01:36:43;;;;;;;5.00;4.80;;;;;;;;;;5034460;28;20397;-85
2023/06/19 01:39:09;;;;;;;5.45;5.25;;;;;;;;;;5033908;28;20132;-85
2023/06/19 01:41:36;;;;;;;5.03;4.82;;;;;;;;;;5034302;28;20060;-86
2023/06/19 01:44:02;;;;;;;5.75;5.45;;;;;;;;;;5034449;28;20041;-85
2023/06/19 01:46:28;;;;;;;5.50;5.10;;;;;;;;;;5017897;28;20049;-86
2023/06/19 01:48:55;;;;;;;5.50;5.05;;;;;;;;;;5018328;28;20041;-86
2023/06/19 01:51:21;;;;;;;5.45;5.15;;;;;;;;;;5017976;28;20124;-86
2023/06/19 01:53:47;;;;;;;5.00;4.80;;;;;;;;;;5034594;28;20041;-86
2023/06/19 01:56:13;;;;;;;5.22;4.93;;;;;;;;;;5033928;28;20478;-86
2023/06/19 01:58:39;;;;;;;6.03;5.63;;;;;;;;;;5033772;28;20092;-85
2023/06/19 02:01:05;;;;;;;4.68;4.43;;;;;;;;;;5035187;28;20041;-86
2023/06/19 02:03:31;;;;;;;5.13;4.75;;;;;;;;;;5034832;28;20053;-85
2023/06/19 02:05:58;;;;;;;5.28;4.80;;;;;;;;;;5033371;28;20046;-86
2023/06/19 02:08:24;;;;;;;7.55;5.07;;;;;;;;;;5033217;28;20045;-85
2023/06/19 02:10:50;;;;;;;4.65;4.40;;;;;;;;;;5032315;28;20371;-85
2023/06/19 02:13:16;;;;;;;5.35;4.95;;;;;;;;;;5033949;28;20156;-86
2023/06/19 02:15:42;;;;;;;5.20;4.82;;;;;;;;;;5034118;28;20049;-86
2023/06/19 02:18:09;;;;;;;5.65;5.32;;;;;;;;;;5034564;28;20049;-86
2023/06/19 02:20:35;;;;;;;5.22;4.93;;;;;;;;;;5017315;28;20099;-86
2023/06/19 02:23:01;;;;;;;5.53;5.15;;;;;;;;;;5033699;28;20132;-86
2023/06/19 02:25:27;;;;;;;5.18;4.82;;;;;;;;;;5033661;28;20049;-86
2023/06/19 02:27:53;;;;;;;5.60;5.30;;;;;;;;;;5033235;28;20085;-86
2023/06/19 02:30:19;;;;;;;5.80;5.30;;;;;;;;;;5033335;28;20482;-85
2023/06/19 02:32:45;;;;;;;5.15;4.90;;;;;;;;;;5017191;28;20482;-86
2023/06/19 02:35:11;;;;;;;5.25;4.95;;;;;;;;;;5016828;28;20049;-85
2023/06/19 02:37:38;;;;;;;5.50;5.22;;;;;;;;;;5033617;28;20049;-85
2023/06/19 02:40:05;;;;;;;5.72;5.30;;;;;;;;;;5016407;28;20592;-85
2023/06/19 02:42:31;;;;;;;4.47;4.18;;;;;;;;;;5016815;28;20077;-85
2023/06/19 02:45:02;;;;;;;4.72;4.53;;;;;;;;;;5000511;28;20045;-85
2023/06/19 02:47:29;;;;;;;4.57;4.38;;;;;;;;;;5018549;28;20049;-84
2023/06/19 02:49:55;;;;;;;5.28;5.00;;;;;;;;;;5033056;28;20045;-85
2023/06/19 02:52:21;;;;;;;5.28;4.78;;;;;;;;;;5016637;28;20049;-84
2023/06/19 02:54:47;;;;;;;4.95;4.75;;;;;;;;;;5032839;28;20084;-84
2023/06/19 02:57:13;;;;;;;4.45;4.22;;;;;;;;;;5032630;28;20045;-84
2023/06/19 02:59:39;;;;;;;4.88;4.57;;;;;;;;;;5016466;28;20049;-85
2023/06/19 03:02:05;;;;;;;4.38;4.05;;;;;;;;;;5032944;28;20041;-85
2023/06/19 03:04:31;;;;;;;4.75;4.50;;;;;;;;;;5033977;28;20087;-85
2023/06/19 03:06:57;;;;;;;4.75;4.47;;;;;;;;;;5032834;28;20046;-86
2023/06/19 03:09:23;;;;;;;5.07;4.60;;;;;;;;;;5032506;28;20046;-86
2023/06/19 03:11:49;;;;;;;4.90;4.70;;;;;;;;;;5000367;28;20050;-86
2023/06/19 03:14:15;;;;;;;5.20;4.88;;;;;;;;;;5016382;28;20049;-85
2023/06/19 03:16:42;;;;;;;4.68;4.38;;;;;;;;;;5032770;28;20080;-85
2023/06/19 03:19:08;;;;;;;4.70;4.40;;;;;;;;;;5033022;28;20041;-86
2023/06/19 03:21:35;;;;;;;4.72;4.53;;;;;;;;;;5015837;28;20081;-86
2023/06/19 03:24:01;;;;;;;5.03;4.68;;;;;;;;;;5016316;28;20052;-86
2023/06/19 03:26:27;;;;;;;4.55;4.25;;;;;;;;;;5000049;28;20401;-85
2023/06/19 03:28:53;;;;;;;5.10;4.75;;;;;;;;;;5032751;28;20053;-85
2023/06/19 03:31:19;;;;;;;6.03;4.40;;;;;;;;;;5033787;28;20057;-85
2023/06/19 03:33:45;;;;;;;4.60;4.22;;;;;;;;;;5016644;28;20047;-86
2023/06/19 03:36:11;;;;;;;4.63;4.15;;;;;;;;;;5033045;28;20397;-86
2023/06/19 03:38:38;;;;;;;4.50;4.20;;;;;;;;;;5032516;28;20049;-86
2023/06/19 03:41:04;;;;;;;4.88;4.47;;;;;;;;;;5032005;28;20088;-85
2023/06/19 03:43:30;;;;;;;4.60;4.25;;;;;;;;;;5032636;28;20045;-85
2023/06/19 03:45:56;;;;;;;4.93;4.53;;;;;;;;;;5033484;28;20500;-85
2023/06/19 03:48:22;;;;;;;4.20;3.88;;;;;;;;;;5032139;28;20427;-85
2023/06/19 03:50:48;;;;;;;4.50;3.85;;;;;;;;;;5032151;28;20049;-85
2023/06/19 03:53:14;;;;;;;4.80;3.75;;;;;;;;;;5032147;28;20080;-85
2023/06/19 03:55:40;;;;;;;4.43;4.00;;;;;;;;;;5032332;28;20042;-86
2023/06/19 03:58:06;;;;;;;4.00;3.80;;;;;;;;;;5032402;28;20045;-85
2023/06/19 04:00:33;;;;;;;3.92;3.63;;;;;;;;;;5015928;28;20045;-86
2023/06/19 04:02:59;;;;;;;3.38;3.17;;;;;;;;;;5032541;28;20096;-86
2023/06/19 04:05:25;;;;;;;3.65;3.45;;;;;;;;;;5032104;28;20494;-86
2023/06/19 04:07:51;;;;;;;3.53;3.33;;;;;;;;;;5032089;28;20050;-86
2023/06/19 04:10:18;;;;;;;4.03;3.63;;;;;;;;;;5031798;28;20401;-86
2023/06/19 04:12:45;;;;;;;3.67;3.30;;;;;;;;;;5033943;28;20052;-85
2023/06/19 04:15:11;;;;;;;2.92;2.83;;;;;;;;;;5033343;28;20045;-85
2023/06/19 04:17:37;;;;;;;3.17;2.97;;;;;;;;;;5016428;28;20072;-86
2023/06/19 04:20:10;;;;;;;3.20;3.00;;;;;;;;;;5016176;28;20045;-86
2023/06/19 04:22:37;;;;;;;3.53;3.25;;;;;;;;;;5032403;28;20116;-85
2023/06/19 04:25:03;;;;;;;3.17;2.97;;;;;;;;;;5015600;28;20049;-86
2023/06/19 04:27:29;;;;;;;3.65;3.20;;;;;;;;;;5016145;28;20046;-86
2023/06/19 04:29:55;;;;;;;3.25;3.05;;;;;;;;;;5015530;28;20149;-86
2023/06/19 04:32:21;;;;;;;3.08;2.85;;;;;;;;;;5032402;28;20049;-86
2023/06/19 04:34:47;;;;;;;4.10;2.92;;;;;;;;;;5036084;28;20056;-86
2023/06/19 04:37:13;;;;;;;3.15;2.95;;;;;;;;;;5001985;28;20037;-87
2023/06/19 04:39:39;;;;;;;2.97;2.80;;;;;;;;;;5034570;28;20046;-86
2023/06/19 04:42:05;;;;;;;4.00;3.40;;;;;;;;;;5019097;28;20096;-86
2023/06/19 04:44:33;;;;;;;2.97;2.88;;;;;;;;;;5035547;28;20425;-85
2023/06/19 04:47:01;;;;;;;5.65;3.00;;;;;;;;;;5035824;28;20049;-85
2023/06/19 04:49:30;;;;;;;3.97;3.67;;;;;;;;;;5035527;28;20486;-86
2023/06/19 04:51:57;;;;;;;5.10;3.67;;;;;;;;;;5003198;28;20053;-85
2023/06/19 04:54:23;;;;;;;4.05;3.75;;;;;;;;;;5036728;28;20045;-86
2023/06/19 04:56:49;;;;;;;3.53;3.33;;;;;;;;;;5018832;28;20041;-86
2023/06/19 04:59:17;;;;;;;3.25;3.13;;;;;;;;;;5035308;28;20112;-85
2023/06/19 05:01:44;;;;;;;2.83;2.30;;;;;;;;;;5035459;28;20050;-86
2023/06/19 05:04:13;;;;;;;2.90;2.70;;;;;;;;;;5034953;28;20045;-86
2023/06/19 05:06:39;;;;;;;1.92;1.83;;;;;;;;;;5018905;28;20056;-84
2023/06/19 05:09:06;;;;;;;3.65;1.80;;;;;;;;;;5034702;28;20059;-84
2023/06/19 05:11:32;;;;;;;2.22;2.08;;;;;;;;;;5035013;28;20132;-83
2023/06/19 05:13:58;;;;;;;2.03;1.88;;;;;;;;;;5036107;28;20053;-84
2023/06/19 05:16:24;;;;;;;1.92;1.38;;;;;;;;;;5034855;28;20049;-85
2023/06/19 05:18:51;;;;;;;1.70;1.60;;;;;;;;;;5034960;28;20048;-88
2023/06/19 05:21:17;;;;;;;2.67;2.08;;;;;;;;;;5034907;28;20057;-82
2023/06/19 05:23:43;;;;;;;2.15;1.95;;;;;;;;;;5034805;28;20045;-81
2023/06/19 05:26:09;;;;;;;4.05;1.60;;;;;;;;;;5034823;28;20494;-77
2023/06/19 05:28:35;;;;;;;2.10;1.60;;;;;;;;;;5002054;28;20456;-83
2023/06/19 05:31:01;;;;;;;2.40;2.15;;;;;;;;;;5034521;28;20061;-82
2023/06/19 05:33:27;;;;;;;2.28;2.00;;;;;;;;;;5034671;28;20046;-83
2023/06/19 05:35:54;;;;;;;1.40;1.30;;;;;;;;;;5034572;28;20132;-81
2023/06/19 05:38:20;;;;;;;2.00;1.80;;;;;;;;;;5030686;28;20038;-82
2023/06/19 05:40:47;;;;;;;1.80;1.35;;;;;;;;;;5014106;28;20096;-81
2023/06/19 05:43:13;;;;;;;2.30;2.10;;;;;;;;;;5014137;28;20394;-82
2023/06/19 05:45:39;;;;;;;2.22;2.13;;;;;;;;;;5014290;28;20516;-82
2023/06/19 05:48:05;;;;;;;2.10;1.70;;;;;;;;;;5014605;28;20157;-80
2023/06/19 05:50:31;;;;;;;2.97;1.55;;;;;;;;;;5015176;28;20053;-81
2023/06/19 05:52:57;;;;;;;2.55;1.85;;;;;;;;;;5014417;28;20053;-81
2023/06/19 05:55:24;;;;;;;2.00;1.90;;;;;;;;;;5014944;28;20129;-81
2023/06/19 05:57:51;;;;;;;2.03;1.75;;;;;;;;;;5015787;28;20121;-82
2023/06/19 06:00:17;;;;;;;1.90;1.80;;;;;;;;;;5013962;28;20042;-80
2023/06/19 06:02:43;;;;;;;2.58;1.67;;;;;;;;;;4997593;28;20422;-83
2023/06/19 06:05:10;;;;;;;5.22;2.25;;;;;;;;;;5015117;28;20056;-80
2023/06/19 06:07:36;;;;;;;2.80;1.90;;;;;;;;;;5015102;28;20096;-82
2023/06/19 06:10:02;;;;;;;2.00;1.90;;;;;;;;;;5014375;28;20483;-82
2023/06/19 06:12:28;;;;;;;2.75;1.73;;;;;;;;;;5014051;28;20050;-81
2023/06/19 06:14:54;;;;;;;2.13;1.83;;;;;;;;;;5014564;28;20483;-82
2023/06/19 06:17:20;;;;;;;2.30;2.00;;;;;;;;;;5014348;28;20050;-82
2023/06/19 06:19:46;;;;;;;1.80;1.58;;;;;;;;;;5013958;28;20054;-82
2023/06/19 06:22:12;;;;;;;2.05;1.80;;;;;;;;;;5014819;28;20096;-82
2023/06/19 06:24:38;;;;;;;1.95;1.85;;;;;;;;;;4997789;28;20141;-79
2023/06/19 06:27:05;;;;;;;3.88;1.88;;;;;;;;;;5013808;28;20046;-83
2023/06/19 06:29:31;;;;;;;2.30;2.20;;;;;;;;;;5014590;28;20057;-86
2023/06/19 06:32:07;;;;;;;2.53;2.33;;;;;;;;;;5013946;28;20076;-86
2023/06/19 06:34:36;;;;;;;2.90;2.75;;;;;;;;;;5013531;28;20054;-87
2023/06/19 06:37:02;;;;;;;2.67;2.45;;;;;;;;;;5014071;28;20046;-86
2023/06/19 06:39:28;;;;;;;2.65;2.45;;;;;;;;;;5013491;28;20140;-86
2023/06/19 06:41:54;;;;;;;2.47;2.38;;;;;;;;;;5014313;28;20056;-86
2023/06/19 06:44:20;;;;;;;2.78;2.58;;;;;;;;;;5013763;28;20056;-86
2023/06/19 06:46:46;;;;;;;3.78;2.60;;;;;;;;;;5013841;28;20042;-86
2023/06/19 06:49:13;;;;;;;2.67;2.45;;;;;;;;;;5014607;28;20041;-85
2023/06/19 06:51:39;;;;;;;3.35;3.13;;;;;;;;;;5013426;28;20053;-86
2023/06/19 06:54:05;;;;;;;3.10;2.90;;;;;;;;;;5014542;28;20461;-86
2023/06/19 06:56:31;;;;;;;2.80;2.60;;;;;;;;;;5015124;28;20050;-85
2023/06/19 06:58:57;;;;;;;2.58;2.38;;;;;;;;;;5014705;28;20125;-86
2023/06/19 07:01:23;;;;;;;3.03;2.72;;;;;;;;;;4997653;28;20128;-86
2023/06/19 07:03:50;;;;;;;2.90;2.70;;;;;;;;;;4997329;28;20042;-86
2023/06/19 07:06:16;;;;;;;2.60;2.45;;;;;;;;;;5013375;28;20042;-85
2023/06/19 07:08:42;;;;;;;2.40;2.30;;;;;;;;;;4997369;28;20046;-86
2023/06/19 07:11:08;;;;;;;2.95;2.75;;;;;;;;;;4996610;28;20129;-85
2023/06/19 07:13:34;;;;;;;3.03;2.83;;;;;;;;;;5013467;28;20593;-86
2023/06/19 07:16:01;;;;;;;2.42;2.33;;;;;;;;;;5013430;28;20058;-85
2023/06/19 07:18:28;;;;;;;2.67;2.28;;;;;;;;;;4997177;28;20042;-85
2023/06/19 07:20:54;;;;;;;3.35;2.50;;;;;;;;;;4998946;28;20046;-85
2023/06/19 07:23:20;;;;;;;2.95;2.38;;;;;;;;;;5029106;28;20069;-85
2023/06/19 07:25:47;;;;;;;3.28;3.08;;;;;;;;;;5017085;28;20045;-85
2023/06/19 07:28:13;;;;;;;2.63;2.47;;;;;;;;;;5015795;28;20050;-85
2023/06/19 07:30:39;;;;;;;3.60;3.17;;;;;;;;;;5014152;28;20057;-86
2023/06/19 07:33:06;;;;;;;3.05;2.85;;;;;;;;;;5013112;28;20052;-86
2023/06/19 07:35:32;;;;;;;3.72;3.30;;;;;;;;;;5013435;28;20054;-85
2023/06/19 07:37:58;;;;;;;3.63;3.38;;;;;;;;;;5014124;28;20038;-86
2023/06/19 07:40:24;;;;;;;3.58;3.40;;;;;;;;;;5012457;28;20057;-86
2023/06/19 07:42:50;;;;;;;3.97;3.45;;;;;;;;;;5013080;28;20042;-86
2023/06/19 07:45:16;;;;;;;3.17;2.90;;;;;;;;;;5013301;28;20096;-87
2023/06/19 07:47:42;;;;;;;2.47;2.15;;;;;;;;;;4997322;28;20053;-87
2023/06/19 07:50:08;;;;;;;2.63;2.42;;;;;;;;;;4980535;28;20097;-87
2023/06/19 07:52:35;;;;;;;2.13;1.92;;;;;;;;;;5012785;28;20553;-87
2023/06/19 07:55:01;;;;;;;2.75;2.28;;;;;;;;;;5012919;28;20045;-87
2023/06/19 07:57:27;;;;;;;2.88;2.60;;;;;;;;;;4996252;28;20046;-87
2023/06/19 07:59:54;;;;;;;3.67;2.83;;;;;;;;;;5017598;28;20041;-87
2023/06/19 08:02:20;;;;;;;3.55;3.35;;;;;;;;;;5032561;28;20103;-86
2023/06/19 08:04:46;;;;;;;3.70;3.50;;;;;;;;;;5016007;28;20049;-86
2023/06/19 08:07:13;;;;;;;3.00;2.83;;;;;;;;;;5035152;28;20053;-86
2023/06/19 08:09:39;;;;;;;3.22;3.13;;;;;;;;;;5036953;28;20452;-86
2023/06/19 08:12:05;;;;;;;3.33;3.13;;;;;;;;;;5019903;28;20049;-87
2023/06/19 08:14:31;;;;;;;3.40;3.20;;;;;;;;;;5036225;28;20536;-87
2023/06/19 08:16:57;;;;;;;3.15;3.00;;;;;;;;;;5036899;28;20559;-86
2023/06/19 08:19:23;;;;;;;4.20;3.50;;;;;;;;;;5019953;28;20077;-85
2023/06/19 08:21:49;;;;;;;3.35;3.05;;;;;;;;;;5019783;28;20180;-85
2023/06/19 08:24:15;;;;;;;3.83;3.63;;;;;;;;;;5036164;28;20089;-86
2023/06/19 08:26:41;;;;;;;3.45;3.25;;;;;;;;;;5036153;28;20045;-86
2023/06/19 08:29:07;;;;;;;3.95;3.75;;;;;;;;;;5034963;28;20056;-86
2023/06/19 08:31:34;;;;;;;4.65;4.45;;;;;;;;;;5019156;28;20132;-86
2023/06/19 08:34:00;;;;;;;4.80;4.47;;;;;;;;;;5035891;28;20041;-84
2023/06/19 08:36:26;;;;;;;4.50;4.22;;;;;;;;;;5035679;28;20049;-86
2023/06/19 08:38:52;;;;;;;4.60;4.30;;;;;;;;;;5018808;28;20087;-86
2023/06/19 08:41:19;;;;;;;6.07;5.65;;;;;;;;;;5018688;28;20103;-86
2023/06/19 08:43:45;;;;;;;4.93;4.63;;;;;;;;;;5034553;28;20063;-87
2023/06/19 08:46:13;;;;;;;5.82;5.53;;;;;;;;;;5020184;28;20045;-86
2023/06/19 08:48:39;;;;;;;5.57;5.18;;;;;;;;;;5035690;28;20049;-83
2023/06/19 08:51:05;;;;;;;6.05;5.75;;;;;;;;;;5034743;28;20049;-83
2023/06/19 08:53:36;;;;;;;4.70;4.40;;;;;;;;;;5034304;28;20512;-84
2023/06/19 08:56:05;;;;;;;6.07;5.78;;;;;;;;;;5020517;28;20513;-84
2023/06/19 08:58:31;;;;;;;5.25;4.95;;;;;;;;;;5016545;28;20393;-83
2023/06/19 09:01:00;;;;;;;5.85;5.45;;;;;;;;;;5015882;28;20053;-85
2023/06/19 09:03:26;;;;;;;4.45;4.03;;;;;;;;;;5016479;28;20149;-85
2023/06/19 09:05:52;;;;;;;3.50;3.00;;;;;;;;;;5035438;28;20052;-85
2023/06/19 09:08:19;;;;;;;3.22;3.03;;;;;;;;;;5035823;28;20095;-85
2023/06/19 09:11:02;;;;;;;3.50;3.10;;;;;;;;;;5002281;28;20444;-86
2023/06/19 09:13:29;;;;;;;3.60;3.33;;;;;;;;;;5008453;28;20052;-82
2023/06/19 09:16:13;;;;;;;3.90;3.60;;;;;;;;;;5034710;28;20046;-83
2023/06/19 09:18:48;;;;;;;3.25;3.15;;;;;;;;;;5018423;28;20045;-82
2023/06/19 09:21:18;;;;;;;4.30;3.50;;;;;;;;;;5019878;28;20124;-82
2023/06/19 09:23:45;;;;;;;4.25;3.72;;;;;;;;;;5035806;28;20500;-82
2023/06/19 09:26:14;;;;;;;5.03;4.72;;;;;;;;;;5035053;28;20103;-82
2023/06/19 09:28:42;;;;;;;5.28;4.90;;;;;;;;;;5036176;28;20044;-82
2023/06/19 09:31:08;;;;;;;5.60;5.30;;;;;;;;;;5017818;28;20425;-82
2023/06/19 09:33:35;;;;;;;5.78;5.45;;;;;;;;;;5034556;28;20053;-83
2023/06/19 09:36:02;;;;;;;6.68;6.30;;;;;;;;;;5018136;28;20053;-82
2023/06/19 09:38:30;;;;;;;8.90;8.25;;;;;;;;;;5035620;28;20048;-83
2023/06/19 09:40:58;;;;;;;8.18;7.68;;;;;;;;;;5034001;28;20085;-81
2023/06/19 09:43:25;;;;;;;8.30;7.80;;;;;;;;;;5034333;28;20053;-82
2023/06/19 09:45:53;;;;;;;7.45;6.95;;;;;;;;;;5034405;28;20051;-82
2023/06/19 09:48:21;;;;;;;6.72;6.43;;;;;;;;;;5035432;28;20092;-82
2023/06/19 09:50:51;;;;;;;7.03;6.65;;;;;;;;;;5034356;28;20053;-82
2023/06/19 09:53:21;;;;;;;7.82;7.07;;;;;;;;;;5034101;28;20500;-82
2023/06/19 09:55:50;;;;;;;7.68;7.13;;;;;;;;;;5034130;28;20053;-82
2023/06/19 09:58:21;;;;;;;6.90;6.60;;;;;;;;;;5033699;28;20038;-82
2023/06/19 10:00:49;;;;;;;7.88;7.32;;;;;;;;;;5035192;28;20065;-82
2023/06/19 10:03:16;;;;;;;6.90;6.50;;;;;;;;;;5018409;28;20091;-82
2023/06/19 10:05:43;;;;;;;6.32;5.95;;;;;;;;;;5035111;28;20050;-82
2023/06/19 10:08:09;;;;;;;6.85;6.38;;;;;;;;;;5033689;28;20401;-83
2023/06/19 10:10:36;;;;;;;6.60;6.13;;;;;;;;;;5016971;28;20075;-83
2023/06/19 10:13:13;;;;;;;6.30;6.00;;;;;;;;;;5017312;28;20136;-82
2023/06/19 10:15:43;;;;;;;6.63;4.22;;;;;;;;;;5017635;28;20061;-82
2023/06/19 10:18:13;;;;;;;6.85;6.38;;;;;;;;;;5034498;28;20049;-82
2023/06/19 10:20:40;;;;;;;5.63;5.32;;;;;;;;;;5034718;28;20046;-83
2023/06/19 10:23:08;;;;;;;5.35;4.95;;;;;;;;;;5017068;28;20045;-82
2023/06/19 10:25:37;;;;;;;5.07;4.68;;;;;;;;;;5017312;28;20076;-82
2023/06/19 10:28:06;;;;;;;6.47;6.18;;;;;;;;;;5034989;28;20124;-82
2023/06/19 10:30:34;;;;;;;5.10;4.47;;;;;;;;;;5031777;28;20064;-82
2023/06/19 10:33:02;;;;;;;6.50;6.00;;;;;;;;;;5014690;28;20045;-83
2023/06/19 10:35:29;;;;;;;5.15;4.70;;;;;;;;;;5013639;28;20128;-83
2023/06/19 10:37:55;;;;;;;4.47;4.20;;;;;;;;;;5013826;28;20084;-83
2023/06/19 10:40:21;;;;;;;4.97;4.60;;;;;;;;;;5024074;28;20454;-82
2023/06/19 10:42:47;;;;;;;6.40;5.75;;;;;;;;;;5033564;28;20045;-83
2023/06/19 10:45:17;;;;;;;6.43;5.93;;;;;;;;;;5034742;28;20053;-83
2023/06/19 10:47:44;;;;;;;5.90;5.10;;;;;;;;;;5033507;28;20088;-83
2023/06/19 10:50:14;;;;;;;6.55;6.10;;;;;;;;;;5032723;28;20493;-83
2023/06/19 10:52:41;;;;;;;6.95;6.38;;;;;;;;;;5017018;28;20053;-84
2023/06/19 10:55:08;;;;;;;6.43;5.90;;;;;;;;;;5016556;28;20083;-83
2023/06/19 10:57:34;;;;;;;5.38;4.97;;;;;;;;;;5033923;28;20037;-82
2023/06/19 11:00:00;;;;;;;6.53;6.03;;;;;;;;;;5032235;28;20084;-83
2023/06/19 11:02:26;;;;;;;7.25;5.88;;;;;;;;;;5016031;28;20041;-83
2023/06/19 11:04:55;;;;;;;6.82;6.35;;;;;;;;;;5032309;28;20132;-83
2023/06/19 11:07:46;;;;;;;5.30;4.93;;;;;;;;;;5032457;28;20037;-83
2023/06/19 11:10:19;;;;;;;6.18;5.65;;;;;;;;;;5012912;28;20104;-83
2023/06/19 11:12:45;;;;;;;6.45;5.95;;;;;;;;;;5014170;28;20045;-83
2023/06/19 11:15:11;;;;;;;8.05;7.45;;;;;;;;;;5012997;28;20429;-83
2023/06/19 11:17:37;;;;;;;9.95;7.28;;;;;;;;;;5012886;28;20045;-83
2023/06/19 11:20:05;;;;;;;11.73;6.65;;;;;;;;;;5012571;28;20486;-83
2023/06/19 11:22:37;;;;;;;8.00;7.35;;;;;;;;;;4996986;28;20050;-83
2023/06/19 11:25:04;;;;;;;7.40;6.78;;;;;;;;;;5013129;28;20099;-83
2023/06/19 11:27:31;;;;;;;6.55;6.05;;;;;;;;;;5012948;28;20509;-84
2023/06/19 11:29:58;;;;;;;6.90;6.40;;;;;;;;;;5014245;28;20042;-83
2023/06/19 11:32:24;;;;;;;5.75;5.43;;;;;;;;;;5013181;28;20053;-83
2023/06/19 11:34:53;;;;;;;5.63;5.22;;;;;;;;;;5012953;28;20042;-83
2023/06/19 11:37:20;;;;;;;6.30;5.82;;;;;;;;;;4996175;28;20104;-83
2023/06/19 11:39:47;;;;;;;7.55;7.05;;;;;;;;;;5012103;28;20053;-83
2023/06/19 11:42:15;;;;;;;6.97;6.57;;;;;;;;;;4999420;28;20050;-83
2023/06/19 11:44:54;;;;;;;5.75;5.47;;;;;;;;;;4987046;28;20049;-83
2023/06/19 11:47:20;;;;;;;5.82;5.38;;;;;;;;;;5020526;28;20046;-83
2023/06/19 11:49:50;;;;;;;8.00;7.35;;;;;;;;;;5020534;28;20152;-84
2023/06/19 11:52:16;;;;;;;7.25;6.68;;;;;;;;;;5003178;28;20050;-83
2023/06/19 11:54:42;;;;;;;7.75;7.15;;;;;;;;;;4986800;28;20077;-83
2023/06/19 11:57:13;;;;;;;6.50;6.10;;;;;;;;;;4986343;28;20140;-83
2023/06/19 11:59:43;;;;;;;5.25;4.85;;;;;;;;;;5019537;28;20140;-84
2023/06/19 12:02:09;;;;;;;7.75;7.30;;;;;;;;;;5020901;28;20137;-83
2023/06/19 12:04:35;;;;;;;6.97;6.47;;;;;;;;;;5020700;28;20518;-83
2023/06/19 12:07:03;;;;;;;6.50;6.00;;;;;;;;;;5019400;28;20050;-83
2023/06/19 12:09:29;;;;;;;6.75;6.35;;;;;;;;;;5002401;28;20099;-83
2023/06/19 12:11:56;;;;;;;5.85;5.45;;;;;;;;;;5019188;28;20038;-84
2023/06/19 12:14:24;;;;;;;7.93;7.40;;;;;;;;;;5019034;28;20056;-83
2023/06/19 12:16:50;;;;;;;7.78;7.10;;;;;;;;;;5020458;28;20119;-83
2023/06/19 12:19:16;;;;;;;8.10;7.50;;;;;;;;;;5018930;28;20088;-83
2023/06/19 12:21:42;;;;;;;10.82;6.85;;;;;;;;;;5019039;28;20050;-83
2023/06/19 12:24:08;;;;;;;6.97;6.43;;;;;;;;;;5019017;28;20057;-83
2023/06/19 12:26:36;;;;;;;8.90;8.20;;;;;;;;;;4986354;28;20046;-82
2023/06/19 12:29:06;;;;;;;8.20;7.40;;;;;;;;;;5018429;28;20045;-85
2023/06/19 12:31:33;;;;;;;12.52;8.73;;;;;;;;;;5016227;28;20545;-82
2023/06/19 12:34:01;;;;;;;9.73;8.93;;;;;;;;;;5018617;28;20180;-81
2023/06/19 12:36:27;;;;;;;9.13;8.35;;;;;;;;;;5019157;28;20443;-83
2023/06/19 12:38:53;;;;;;;9.90;9.30;;;;;;;;;;5019991;28;20506;-83
2023/06/19 12:41:22;;;;;;;7.60;7.07;;;;;;;;;;5019566;28;20049;-84
2023/06/19 12:43:49;;;;;;;7.07;6.45;;;;;;;;;;5018866;28;20140;-83
2023/06/19 12:46:15;;;;;;;7.03;6.47;;;;;;;;;;5018915;28;20049;-84
2023/06/19 12:48:44;;;;;;;9.25;8.50;;;;;;;;;;5018620;28;20077;-84
2023/06/19 12:51:10;;;;;;;9.23;8.63;;;;;;;;;;5018853;28;20045;-83
2023/06/19 12:53:36;;;;;;;10.02;9.32;;;;;;;;;;5016438;28;20141;-83
2023/06/19 12:56:02;;;;;;;9.35;8.52;;;;;;;;;;5015181;28;20069;-85
2023/06/19 12:58:28;;;;;;;9.27;8.73;;;;;;;;;;5014189;28;20045;-84
2023/06/19 13:00:54;;;;;;;10.77;9.98;;;;;;;;;;4982814;28;20478;-83
2023/06/19 13:03:20;;;;;;;9.05;8.45;;;;;;;;;;5016768;28;20483;-84
2023/06/19 13:05:47;;;;;;;10.52;7.72;;;;;;;;;;5015400;28;20049;-84
2023/06/19 13:08:13;;;;;;;10.30;9.65;;;;;;;;;;4983030;28;20553;-83
2023/06/19 13:10:40;;;;;;;6.90;6.45;;;;;;;;;;4998666;28;20057;-83
2023/06/19 13:13:06;;;;;;;8.43;7.70;;;;;;;;;;5016269;28;20050;-83
2023/06/19 13:15:35;;;;;;;8.05;7.45;;;;;;;;;;5015200;28;20050;-83
2023/06/19 13:18:01;;;;;;;7.93;7.38;;;;;;;;;;4998726;28;20038;-84
2023/06/19 13:20:27;;;;;;;10.18;9.38;;;;;;;;;;4999097;28;20064;-85
2023/06/19 13:22:54;;;;;;;9.95;9.18;;;;;;;;;;4998792;28;20042;-83
2023/06/19 13:25:20;;;;;;;9.63;8.85;;;;;;;;;;5015103;28;20050;-83
2023/06/19 13:27:46;;;;;;;9.00;8.10;;;;;;;;;;5015885;28;20046;-83
2023/06/19 13:30:13;;;;;;;6.45;5.85;;;;;;;;;;5015065;28;20111;-82
2023/06/19 13:32:39;;;;;;;8.50;7.65;;;;;;;;;;5014884;28;20505;-84
2023/06/19 13:35:06;;;;;;;8.68;8.05;;;;;;;;;;5015858;28;20438;-83
2023/06/19 13:37:34;;;;;;;8.95;8.25;;;;;;;;;;5015858;28;20048;-84
2023/06/19 13:40:00;;;;;;;9.25;8.65;;;;;;;;;;4998094;28;20057;-82
2023/06/19 13:42:27;;;;;;;7.85;7.25;;;;;;;;;;5014451;28;20049;-83
2023/06/19 13:44:53;;;;;;;7.90;7.30;;;;;;;;;;5014483;28;20049;-83
2023/06/19 13:47:19;;;;;;;8.75;8.15;;;;;;;;;;5014654;28;20490;-84
2023/06/19 13:49:45;;;;;;;6.40;5.65;;;;;;;;;;5014491;28;20061;-83
2023/06/19 13:52:11;;;;;;;7.75;7.07;;;;;;;;;;4998560;28;20054;-83
2023/06/19 13:54:38;;;;;;;8.15;7.45;;;;;;;;;;4982202;28;20084;-83
2023/06/19 13:57:04;;;;;;;7.85;7.30;;;;;;;;;;4998460;28;20060;-83
2023/06/19 13:59:30;;;;;;;7.45;7.00;;;;;;;;;;5014160;28;20041;-83
2023/06/19 14:01:56;;;;;;;7.82;7.22;;;;;;;;;;5014326;28;20052;-84
2023/06/19 14:04:22;;;;;;;9.32;8.57;;;;;;;;;;4981642;28;20572;-84
2023/06/19 14:06:48;;;;;;;7.63;7.03;;;;;;;;;;5014050;28;20379;-86
2023/06/19 14:09:16;;;;;;;6.30;5.90;;;;;;;;;;4998475;28;20050;-84
2023/06/19 14:11:43;;;;;;;8.30;7.80;;;;;;;;;;5014795;28;20050;-84
2023/06/19 14:14:09;;;;;;;6.78;6.18;;;;;;;;;;5014022;28;20125;-84
2023/06/19 14:16:36;;;;;;;5.90;5.53;;;;;;;;;;5014303;28;20050;-84
2023/06/19 14:19:02;;;;;;;5.55;5.22;;;;;;;;;;5013963;28;20045;-84
2023/06/19 14:21:28;;;;;;;6.57;6.10;;;;;;;;;;5014126;28;20100;-83
2023/06/19 14:23:54;;;;;;;6.43;5.93;;;;;;;;;;5014167;28;20115;-84
2023/06/19 14:26:21;;;;;;;7.03;6.53;;;;;;;;;;4981582;28;20049;-83
2023/06/19 14:28:47;;;;;;;7.57;7.18;;;;;;;;;;5013763;28;20134;-84
2023/06/19 14:31:13;;;;;;;8.68;8.15;;;;;;;;;;5013393;28;20058;-83
2023/06/19 14:33:39;;;;;;;9.60;8.88;;;;;;;;;;4981555;28;20111;-84
2023/06/19 14:36:05;;;;;;;7.63;7.03;;;;;;;;;;5013863;28;20046;-84
2023/06/19 14:38:33;;;;;;;7.50;7.00;;;;;;;;;;5014714;28;20069;-84
2023/06/19 14:41:02;;;;;;;6.93;6.45;;;;;;;;;;5013354;28;20050;-84